Time;durP1;ratioP1;P1;durP2;ratioP2;P2;SDS_P1;SDS_P2;PMS_P1;PMS_P2;Temp;Humidity;BMP_temperature;BMP_pressure;BME280_temperature;BME280_humidity;BME280_pressure;Samples;Min_cycle;Max_cycle;Signal;HPM_P1;HPM_P2
2023/02/18 00:01:20;;;;;;;17.27;3.00;;;7.00;99.90;;;;;;5063091;28;20035;-50
2023/02/18 00:03:46;;;;;;;18.33;3.33;;;7.00;99.90;;;;;;5048073;28;20025;-50
2023/02/18 00:06:19;;;;;;;17.55;3.08;;;7.00;99.90;;;;;;5047843;28;20035;-50
2023/02/18 00:08:45;;;;;;;18.50;2.95;;;7.00;99.90;;;;;;5048034;28;20045;-47
2023/02/18 00:11:12;;;;;;;8.30;2.22;;;7.00;99.90;;;;;;5044908;28;20027;-47
2023/02/18 00:13:37;;;;;;;20.08;2.97;;;7.00;99.90;;;;;;5047831;28;20100;-47
2023/02/18 00:16:08;;;;;;;14.80;2.22;;;7.00;99.90;;;;;;5063584;28;20104;-50
2023/02/18 00:18:34;;;;;;;10.10;1.90;;;7.00;99.90;;;;;;5045697;28;20024;-47
2023/02/18 00:21:01;;;;;;;13.27;2.63;;;7.00;99.90;;;;;;5047526;28;20091;-49
2023/02/18 00:23:27;;;;;;;19.77;4.03;;;7.10;99.90;;;;;;5047796;28;20411;-49
2023/02/18 00:26:13;;;;;;;8.25;2.50;;;7.00;99.90;;;;;;5047920;28;20112;-50
2023/02/18 00:28:39;;;;;;;6.05;1.83;;;7.00;99.90;;;;;;5043693;28;20039;-51
2023/02/18 00:31:11;;;;;;;7.90;2.35;;;7.00;99.90;;;;;;5047887;28;20095;-47
2023/02/18 00:33:36;;;;;;;8.98;2.22;;;7.00;99.90;;;;;;5046001;28;20067;-48
2023/02/18 00:36:04;;;;;;;11.27;2.38;;;7.00;99.90;;;;;;5047542;28;20293;-47
2023/02/18 00:38:30;;;;;;;13.30;2.60;;;7.00;99.90;;;;;;5046376;28;20050;-47
2023/02/18 00:40:55;;;;;;;8.95;2.03;;;7.00;99.90;;;;;;5047616;28;20477;-49
2023/02/18 00:43:21;;;;;;;10.52;2.30;;;7.00;99.90;;;;;;5047662;28;20464;-49
2023/02/18 00:45:47;;;;;;;11.65;2.20;;;7.00;99.90;;;;;;5047435;28;20116;-47
2023/02/18 00:48:12;;;;;;;11.63;2.92;;;7.00;99.90;;;;;;5047653;28;20072;-47
2023/02/18 00:50:38;;;;;;;12.32;2.72;;;7.00;99.90;;;;;;5047441;28;20074;-50
2023/02/18 00:53:03;;;;;;;8.15;2.15;;;7.00;99.90;;;;;;5047106;28;20344;-48
2023/02/18 00:55:29;;;;;;;9.85;1.90;;;7.00;99.90;;;;;;5050065;28;20043;-47
2023/02/18 00:57:55;;;;;;;13.50;2.03;;;7.00;99.90;;;;;;5066965;28;20504;-47
2023/02/18 01:00:20;;;;;;;17.60;2.65;;;7.00;99.90;;;;;;5051647;28;20160;-48
2023/02/18 01:02:46;;;;;;;12.13;2.30;;;7.10;99.90;;;;;;5051220;28;20108;-50
2023/02/18 01:05:11;;;;;;;5.60;1.88;;;7.10;99.90;;;;;;5051161;28;20391;-48
2023/02/18 01:07:37;;;;;;;9.15;2.22;;;7.10;99.90;;;;;;5051548;28;20398;-48
2023/02/18 01:10:03;;;;;;;11.77;2.53;;;7.10;99.90;;;;;;5051148;28;20033;-48
2023/02/18 01:12:29;;;;;;;15.15;2.30;;;7.10;99.90;;;;;;5050554;28;20025;-47
2023/02/18 01:14:55;;;;;;;8.55;2.58;;;7.10;99.90;;;;;;5066859;28;20013;-47
2023/02/18 01:17:20;;;;;;;6.93;1.88;;;7.10;99.90;;;;;;5051081;28;20032;-48
2023/02/18 01:19:46;;;;;;;7.90;2.22;;;7.10;99.90;;;;;;5053759;28;20095;-47
2023/02/18 01:22:11;;;;;;;9.77;2.08;;;7.10;99.90;;;;;;5047769;28;20110;-47
2023/02/18 01:24:37;;;;;;;10.55;2.30;;;7.20;99.90;;;;;;5051004;28;20047;-48
2023/02/18 01:27:03;;;;;;;8.25;2.10;;;7.20;99.90;;;;;;5050707;28;20423;-48
2023/02/18 01:29:28;;;;;;;9.73;2.17;;;7.10;99.90;;;;;;5050695;28;20044;-47
2023/02/18 01:31:54;;;;;;;13.48;2.90;;;7.10;99.90;;;;;;5065645;28;20013;-47
2023/02/18 01:34:19;;;;;;;8.88;2.28;;;7.10;99.90;;;;;;5049346;28;20039;-48
2023/02/18 01:36:45;;;;;;;8.60;2.25;;;7.10;99.90;;;;;;5065835;28;20361;-47
2023/02/18 01:39:10;;;;;;;15.75;2.67;;;7.10;99.90;;;;;;5065875;28;20091;-47
2023/02/18 01:41:36;;;;;;;9.20;3.08;;;7.10;99.90;;;;;;5050745;28;20029;-47
2023/02/18 01:44:15;;;;;;;7.93;2.47;;;7.10;99.90;;;;;;5050920;28;20025;-47
2023/02/18 01:46:41;;;;;;;11.70;3.75;;;7.10;99.90;;;;;;5049033;28;20021;-47
2023/02/18 01:49:07;;;;;;;9.77;2.05;;;7.10;99.90;;;;;;5050458;28;20399;-47
2023/02/18 01:51:56;;;;;;;9.82;2.00;;;7.20;99.90;;;;;;5049587;28;20221;-48
2023/02/18 01:54:33;;;;;;;16.27;2.65;;;7.20;99.90;;;;;;5048647;28;20017;-49
2023/02/18 01:57:20;;;;;;;10.05;2.30;;;7.20;99.90;;;;;;5048699;28;20124;-47
2023/02/18 01:59:53;;;;;;;15.88;2.17;;;7.20;99.90;;;;;;5049707;28;20063;-48
2023/02/18 02:02:21;;;;;;;10.10;1.95;;;7.20;99.90;;;;;;5047813;28;20083;-47
2023/02/18 02:04:48;;;;;;;5.57;1.95;;;7.10;99.90;;;;;;5050135;28;20086;-48
2023/02/18 02:07:16;;;;;;;13.52;2.15;;;7.20;99.90;;;;;;5049610;28;20052;-47
2023/02/18 02:09:42;;;;;;;14.13;2.25;;;7.20;99.90;;;;;;5049960;28;20052;-47
2023/02/18 02:12:49;;;;;;;11.05;2.28;;;7.10;99.90;;;;;;5049352;28;20044;-48
2023/02/18 02:15:36;;;;;;;11.25;3.33;;;7.20;99.90;;;;;;5039487;28;20040;-47
2023/02/18 02:18:22;;;;;;;16.13;2.28;;;7.10;99.90;;;;;;5048667;28;20494;-47
2023/02/18 02:21:06;;;;;;;13.77;2.63;;;7.10;99.90;;;;;;5048561;28;20082;-48
2023/02/18 02:23:40;;;;;;;11.43;2.13;;;7.10;99.90;;;;;;5048309;28;20024;-47
2023/02/18 02:26:14;;;;;;;8.13;2.08;;;7.10;99.90;;;;;;5049667;28;20028;-48
2023/02/18 02:29:03;;;;;;;17.30;2.03;;;7.20;99.90;;;;;;5048143;28;20036;-48
2023/02/18 02:31:54;;;;;;;10.00;2.17;;;7.20;99.90;;;;;;5048632;28;20017;-47
2023/02/18 02:35:05;;;;;;;9.88;2.10;;;7.20;99.90;;;;;;5047986;28;20120;-47
2023/02/18 02:37:30;;;;;;;;;;;7.20;99.90;;;;;;5046374;28;20530;-46
2023/02/18 02:40:17;;;;;;;12.73;2.17;;;7.20;99.90;;;;;;5049349;28;19932;-47
2023/02/18 02:43:14;;;;;;;10.38;2.30;;;7.30;99.90;;;;;;5047631;28;20537;-47
2023/02/18 02:45:51;;;;;;;10.02;2.45;;;7.30;99.90;;;;;;5043839;28;20121;-47
2023/02/18 02:48:40;;;;;;;10.98;3.03;;;7.40;99.90;;;;;;5047487;28;20091;-49
2023/02/18 02:51:18;;;;;;;7.70;2.03;;;7.50;99.90;;;;;;5063660;28;20044;-47
2023/02/18 02:53:44;;;;;;;7.88;2.15;;;7.50;99.90;;;;;;5048371;28;20017;-46
2023/02/18 02:56:23;;;;;;;13.43;2.50;;;7.40;99.90;;;;;;5049459;28;20036;-47
2023/02/18 02:59:01;;;;;;;9.88;1.70;;;7.50;99.90;;;;;;5064563;28;20021;-46
2023/02/18 03:01:42;;;;;;;13.27;3.33;;;7.50;99.90;;;;;;5048544;28;20041;-47
2023/02/18 03:04:23;;;;;;;10.73;1.92;;;7.50;99.90;;;;;;5048382;28;20492;-47
2023/02/18 03:07:25;;;;;;;9.60;2.58;;;7.50;99.90;;;;;;5048795;28;20369;-48
2023/02/18 03:10:15;;;;;;;16.70;2.65;;;7.50;99.90;;;;;;5049243;28;20021;-46
2023/02/18 03:12:58;;;;;;;8.48;2.13;;;7.50;99.90;;;;;;5046931;28;20105;-48
2023/02/18 03:15:48;;;;;;;10.45;2.45;;;7.50;99.90;;;;;;5047782;28;20240;-46
2023/02/18 03:18:34;;;;;;;9.15;1.73;;;7.50;99.90;;;;;;5044477;28;20131;-47
2023/02/18 03:21:23;;;;;;;9.40;2.15;;;7.40;99.90;;;;;;5046391;28;20104;-47
2023/02/18 03:24:02;;;;;;;7.35;1.92;;;7.50;99.90;;;;;;5063422;28;20043;-47
2023/02/18 03:26:30;;;;;;;9.27;2.15;;;7.40;99.90;;;;;;5063877;28;20548;-48
2023/02/18 03:29:00;;;;;;;15.52;4.20;;;7.50;99.90;;;;;;5048616;28;20024;-47
2023/02/18 03:31:28;;;;;;;11.20;2.47;;;7.50;99.90;;;;;;5047954;28;20056;-48
2023/02/18 03:34:25;;;;;;;6.05;1.75;;;7.50;99.90;;;;;;5044498;28;20361;-49
2023/02/18 03:40:15;;;;;;;7.13;1.67;;;7.50;99.90;;;;;;5042769;28;20479;-47
2023/02/18 03:42:41;;;;;;;7.65;2.10;;;7.40;99.90;;;;;;5062523;28;20025;-50
2023/02/18 03:45:06;;;;;;;8.88;2.58;;;7.50;99.90;;;;;;5046992;28;20032;-50
2023/02/18 03:47:32;;;;;;;12.45;2.65;;;7.40;99.90;;;;;;5048483;28;20031;-49
2023/02/18 03:49:58;;;;;;;11.48;2.40;;;7.30;99.90;;;;;;5048311;28;20021;-51
2023/02/18 03:52:24;;;;;;;12.13;2.10;;;7.40;99.90;;;;;;5047821;28;20100;-48
2023/02/18 03:54:49;;;;;;;12.50;1.90;;;7.30;99.90;;;;;;5049769;28;20025;-47
2023/02/18 03:57:15;;;;;;;9.07;2.63;;;7.30;99.90;;;;;;5047866;28;20029;-48
2023/02/18 03:59:40;;;;;;;20.23;2.70;;;7.40;99.90;;;;;;5048006;28;20070;-49
2023/02/18 04:02:06;;;;;;;7.38;2.20;;;7.40;99.90;;;;;;5047709;28;20096;-48
2023/02/18 04:04:32;;;;;;;7.85;2.25;;;7.40;99.90;;;;;;5048288;28;20021;-49
2023/02/18 04:06:57;;;;;;;13.45;2.72;;;7.40;99.90;;;;;;5047755;28;20074;-50
2023/02/18 04:09:23;;;;;;;11.00;2.35;;;7.40;99.90;;;;;;5047899;28;20614;-51
2023/02/18 04:11:48;;;;;;;13.45;2.90;;;7.40;99.90;;;;;;5047657;28;20013;-48
2023/02/18 04:14:14;;;;;;;7.38;2.00;;;7.40;99.90;;;;;;5048075;28;20033;-51
2023/02/18 04:16:40;;;;;;;6.93;2.17;;;7.40;99.90;;;;;;5046465;28;20082;-48
2023/02/18 04:19:06;;;;;;;12.73;2.72;;;7.40;99.90;;;;;;5048061;28;20025;-49
2023/02/18 04:21:32;;;;;;;10.68;2.10;;;7.40;99.90;;;;;;5047133;28;20036;-47
2023/02/18 04:23:58;;;;;;;15.48;2.53;;;7.40;99.90;;;;;;5047666;28;20013;-50
2023/02/18 04:26:23;;;;;;;11.15;2.25;;;7.40;99.90;;;;;;5062881;28;20116;-48
2023/02/18 04:28:49;;;;;;;13.65;2.70;;;7.50;99.90;;;;;;5049499;28;20029;-47
2023/02/18 04:31:14;;;;;;;7.75;1.92;;;7.50;99.90;;;;;;5051040;28;20024;-47
2023/02/18 04:33:40;;;;;;;8.10;2.22;;;7.50;99.90;;;;;;5051479;28;20083;-49
2023/02/18 04:36:06;;;;;;;8.15;2.08;;;7.50;99.90;;;;;;5051631;28;20445;-48
2023/02/18 04:38:32;;;;;;;13.95;2.40;;;7.50;99.90;;;;;;5051588;28;20032;-48
2023/02/18 04:40:57;;;;;;;10.02;2.55;;;7.50;99.90;;;;;;5051192;28;20025;-48
2023/02/18 04:43:23;;;;;;;12.88;2.15;;;7.60;99.90;;;;;;5051446;28;20087;-49
2023/02/18 04:45:48;;;;;;;8.25;1.85;;;7.60;99.90;;;;;;5051583;28;20029;-48
2023/02/18 04:48:14;;;;;;;15.02;2.35;;;7.60;99.90;;;;;;5051619;28;20099;-49
2023/02/18 04:50:40;;;;;;;10.90;2.85;;;7.70;99.90;;;;;;5051422;28;20013;-50
2023/02/18 04:53:25;;;;;;;8.50;2.17;;;7.70;99.90;;;;;;5050719;28;20013;-51
2023/02/18 04:55:52;;;;;;;8.95;2.00;;;7.80;99.90;;;;;;5051071;28;20099;-48
2023/02/18 04:58:18;;;;;;;4.82;2.00;;;7.70;99.90;;;;;;5051584;28;20017;-48
2023/02/18 05:00:44;;;;;;;11.55;2.65;;;7.70;99.90;;;;;;5051353;28;20045;-49
2023/02/18 05:03:09;;;;;;;5.95;1.48;;;7.80;99.90;;;;;;5050810;28;20052;-51
2023/02/18 05:05:36;;;;;;;6.57;1.83;;;7.80;99.90;;;;;;5051162;28;20047;-49
2023/02/18 05:08:02;;;;;;;5.95;1.60;;;7.80;99.90;;;;;;5066333;28;20693;-48
2023/02/18 05:10:28;;;;;;;5.80;1.70;;;7.70;99.90;;;;;;5066552;28;20031;-48
2023/02/18 05:12:53;;;;;;;13.13;1.73;;;7.70;99.90;;;;;;5048159;28;20013;-48
2023/02/18 05:15:19;;;;;;;9.98;2.28;;;7.70;99.90;;;;;;5051482;28;20025;-51
2023/02/18 05:17:44;;;;;;;8.25;2.20;;;7.70;99.90;;;;;;5051467;28;20067;-51
2023/02/18 05:20:10;;;;;;;9.60;1.90;;;7.70;99.90;;;;;;5066079;28;20048;-49
2023/02/18 05:22:37;;;;;;;11.85;2.88;;;7.60;99.90;;;;;;5049999;28;20017;-51
2023/02/18 05:25:02;;;;;;;12.70;1.80;;;7.60;99.90;;;;;;5050540;28;20029;-48
2023/02/18 05:27:28;;;;;;;7.28;1.70;;;7.60;99.90;;;;;;5066404;28;20029;-50
2023/02/18 05:29:54;;;;;;;11.00;2.60;;;7.50;99.90;;;;;;5048180;28;20025;-49
2023/02/18 05:32:19;;;;;;;8.48;2.40;;;7.50;99.90;;;;;;5050515;28;20025;-50
2023/02/18 05:34:45;;;;;;;15.35;2.40;;;7.50;99.90;;;;;;5050979;28;20456;-48
2023/02/18 05:37:12;;;;;;;26.98;5.03;;;7.40;99.90;;;;;;5065582;28;20029;-50
2023/02/18 05:39:37;;;;;;;12.57;2.25;;;7.40;99.90;;;;;;5050150;28;20476;-48
2023/02/18 05:42:03;;;;;;;13.73;3.25;;;7.40;99.90;;;;;;5049722;28;20067;-47
2023/02/18 05:44:29;;;;;;;10.35;2.88;;;7.30;99.90;;;;;;5050585;28;20108;-48
2023/02/18 05:47:05;;;;;;;10.00;2.88;;;7.30;99.90;;;;;;5050436;28;20021;-49
2023/02/18 05:49:32;;;;;;;12.40;3.10;;;7.30;99.90;;;;;;5050346;28;20053;-48
2023/02/18 05:51:58;;;;;;;12.73;3.40;;;7.30;99.90;;;;;;5049561;28;20021;-49
2023/02/18 05:54:24;;;;;;;17.40;3.70;;;7.30;99.90;;;;;;5050075;28;20032;-48
2023/02/18 05:56:50;;;;;;;18.20;3.47;;;7.20;99.90;;;;;;5050279;28;20086;-48
2023/02/18 05:59:16;;;;;;;15.75;4.35;;;7.20;99.90;;;;;;5050733;28;20063;-47
2023/02/18 06:01:43;;;;;;;21.77;5.38;;;7.20;99.90;;;;;;5050120;28;20086;-48
2023/02/18 06:04:08;;;;;;;16.63;4.55;;;7.10;99.90;;;;;;5050430;28;20025;-47
2023/02/18 06:06:34;;;;;;;15.02;4.82;;;7.00;99.90;;;;;;5047226;28;20104;-47
2023/02/18 06:09:00;;;;;;;20.75;5.45;;;7.10;99.90;;;;;;5050208;28;20013;-47
2023/02/18 06:11:26;;;;;;;13.52;4.32;;;7.00;99.90;;;;;;5049683;28;20025;-47
2023/02/18 06:13:51;;;;;;;17.10;5.50;;;7.10;99.90;;;;;;5050081;28;20546;-47
2023/02/18 06:16:17;;;;;;;17.38;5.47;;;7.00;99.90;;;;;;5050024;28;20110;-48
2023/02/18 06:18:42;;;;;;;25.85;6.38;;;7.00;99.90;;;;;;5048804;28;20013;-49
2023/02/18 06:21:08;;;;;;;16.33;5.22;;;7.00;99.90;;;;;;5063252;28;20431;-50
2023/02/18 06:23:33;;;;;;;27.98;6.70;;;7.00;99.90;;;;;;5046651;28;20426;-47
2023/02/18 06:25:59;;;;;;;15.35;5.93;;;7.00;99.90;;;;;;5048722;28;20510;-48
2023/02/18 06:28:24;;;;;;;19.98;5.45;;;6.90;99.90;;;;;;5048905;28;20020;-48
2023/02/18 06:30:50;;;;;;;15.48;5.82;;;6.90;99.90;;;;;;5048193;28;20197;-48
2023/02/18 06:33:16;;;;;;;19.60;5.60;;;6.90;99.90;;;;;;5045979;28;20387;-47
2023/02/18 06:35:41;;;;;;;17.25;5.85;;;6.90;99.90;;;;;;5049629;28;20150;-48
2023/02/18 06:38:07;;;;;;;22.33;7.13;;;6.90;99.90;;;;;;5048879;28;20057;-48
2023/02/18 06:40:33;;;;;;;17.08;6.30;;;6.90;99.90;;;;;;5048630;28;20021;-46
2023/02/18 06:42:58;;;;;;;23.08;8.43;;;6.90;99.90;;;;;;5061560;28;20039;-46
2023/02/18 06:45:24;;;;;;;23.50;8.02;;;6.90;99.90;;;;;;5047961;28;20032;-48
2023/02/18 06:47:49;;;;;;;26.08;8.60;;;6.90;99.90;;;;;;5048276;28;20397;-48
2023/02/18 06:50:15;;;;;;;23.95;8.77;;;6.80;99.90;;;;;;5050046;28;20078;-47
2023/02/18 06:52:41;;;;;;;28.30;9.77;;;6.80;99.90;;;;;;5047898;28;20159;-47
2023/02/18 06:55:08;;;;;;;24.73;8.90;;;6.80;99.90;;;;;;5048806;28;20048;-47
2023/02/18 06:57:34;;;;;;;23.38;8.82;;;6.80;99.90;;;;;;5044322;28;20111;-50
2023/02/18 07:00:00;;;;;;;28.13;10.77;;;6.90;99.90;;;;;;5049343;28;20158;-49
2023/02/18 07:02:26;;;;;;;23.52;9.52;;;6.90;99.90;;;;;;5062758;28;20119;-52
2023/02/18 07:04:51;;;;;;;27.45;9.68;;;6.80;99.90;;;;;;5049254;28;20539;-50
2023/02/18 07:07:17;;;;;;;27.17;9.27;;;6.90;99.90;;;;;;5050281;28;20022;-48
2023/02/18 07:09:43;;;;;;;29.48;10.52;;;6.80;99.90;;;;;;5050922;28;20025;-51
2023/02/18 07:12:08;;;;;;;25.85;9.77;;;6.90;99.90;;;;;;5050428;28;20024;-50
2023/02/18 07:14:34;;;;;;;23.80;9.50;;;6.90;99.90;;;;;;5050700;28;20021;-47
2023/02/18 07:16:59;;;;;;;26.30;9.88;;;6.90;99.90;;;;;;5050709;28;20175;-48
2023/02/18 07:19:25;;;;;;;23.88;9.15;;;6.90;99.90;;;;;;5050458;28;20033;-53
2023/02/18 07:21:50;;;;;;;28.98;10.18;;;6.90;99.90;;;;;;5049690;28;20028;-48
2023/02/18 07:24:16;;;;;;;27.35;9.55;;;6.90;99.90;;;;;;5050204;28;20031;-51
2023/02/18 07:26:42;;;;;;;20.23;9.60;;;6.90;99.90;;;;;;5065447;28;20028;-51
2023/02/18 07:29:07;;;;;;;20.52;9.65;;;6.90;99.90;;;;;;5050404;28;20099;-49
2023/02/18 07:31:33;;;;;;;17.23;8.80;;;6.90;99.90;;;;;;5049673;28;20075;-51
2023/02/18 07:33:58;;;;;;;23.05;8.48;;;6.90;99.90;;;;;;5050289;28;20025;-48
2023/02/18 07:36:24;;;;;;;19.48;9.05;;;7.00;99.90;;;;;;5050184;28;20029;-49
2023/02/18 07:38:49;;;;;;;24.95;9.20;;;7.00;99.90;;;;;;5047810;28;20056;-51
2023/02/18 07:41:22;;;;;;;23.98;9.43;;;7.00;99.90;;;;;;5047058;28;20029;-48
2023/02/18 07:43:48;;;;;;;27.08;10.75;;;6.90;99.90;;;;;;5049109;28;20025;-47
2023/02/18 07:46:14;;;;;;;21.20;9.63;;;6.90;99.90;;;;;;5048793;28;20492;-47
2023/02/18 07:48:40;;;;;;;23.45;10.65;;;7.00;99.90;;;;;;5048732;28;20029;-46
2023/02/18 07:51:08;;;;;;;23.40;10.23;;;7.00;99.90;;;;;;5048162;28;20336;-46
2023/02/18 07:53:34;;;;;;;23.23;9.25;;;7.00;99.90;;;;;;5048215;28;20028;-50
2023/02/18 07:56:00;;;;;;;19.02;10.05;;;7.00;99.90;;;;;;5048342;28;20028;-49
2023/02/18 07:58:28;;;;;;;20.10;9.77;;;7.10;99.90;;;;;;5048316;28;20025;-47
2023/02/18 08:00:54;;;;;;;23.13;9.65;;;7.00;99.90;;;;;;5048285;28;20025;-48
2023/02/18 08:03:22;;;;;;;16.63;8.82;;;7.10;99.90;;;;;;5048019;28;20025;-47
2023/02/18 08:05:49;;;;;;;21.13;10.25;;;7.10;99.90;;;;;;5048358;28;20079;-47
2023/02/18 08:08:19;;;;;;;21.30;10.60;;;7.00;99.90;;;;;;5047917;28;20013;-47
2023/02/18 08:10:45;;;;;;;22.08;10.40;;;7.10;99.90;;;;;;5048338;28;20025;-47
2023/02/18 08:13:10;;;;;;;21.33;10.30;;;7.00;99.90;;;;;;5047336;28;20056;-47
2023/02/18 08:15:36;;;;;;;19.52;10.68;;;7.00;99.90;;;;;;5048304;28;20053;-47
2023/02/18 08:18:02;;;;;;;22.05;10.65;;;7.00;99.90;;;;;;5047334;28;20378;-47
2023/02/18 08:20:28;;;;;;;20.90;10.77;;;7.00;99.90;;;;;;5047329;28;20032;-47
2023/02/18 08:22:54;;;;;;;20.50;10.55;;;7.10;99.90;;;;;;5046764;28;20009;-47
2023/02/18 08:25:19;;;;;;;23.10;10.75;;;7.10;99.90;;;;;;5046904;28;20101;-46
2023/02/18 08:27:45;;;;;;;24.80;11.45;;;7.10;99.90;;;;;;5046788;28;20100;-47
2023/02/18 08:30:11;;;;;;;19.40;10.95;;;7.10;99.90;;;;;;5046858;28;20468;-47
2023/02/18 08:32:36;;;;;;;19.88;10.65;;;7.10;99.90;;;;;;5046633;28;20028;-46
2023/02/18 08:35:03;;;;;;;24.27;11.77;;;7.10;99.90;;;;;;5047022;28;20017;-48
2023/02/18 08:37:29;;;;;;;23.10;10.65;;;7.20;99.90;;;;;;5046205;28;20036;-48
2023/02/18 08:39:54;;;;;;;17.95;10.52;;;7.10;99.90;;;;;;5047790;28;20092;-46
2023/02/18 08:42:20;;;;;;;28.10;11.85;;;7.20;99.90;;;;;;5046000;28;20041;-47
2023/02/18 08:44:45;;;;;;;22.67;11.27;;;7.20;99.90;;;;;;5047846;28;20135;-47
2023/02/18 08:47:11;;;;;;;22.10;12.00;;;7.20;99.90;;;;;;5047306;28;20061;-48
2023/02/18 08:49:36;;;;;;;25.58;12.02;;;7.30;99.90;;;;;;5047513;28;20025;-48
2023/02/18 08:52:03;;;;;;;22.25;13.27;;;7.30;99.90;;;;;;5047483;28;20032;-50
2023/02/18 08:54:29;;;;;;;23.92;12.73;;;7.30;99.90;;;;;;5047830;28;20025;-47
2023/02/18 08:56:56;;;;;;;27.48;14.13;;;7.30;99.90;;;;;;5048162;28;20480;-50
2023/02/18 08:59:23;;;;;;;22.83;12.63;;;7.30;99.90;;;;;;5063208;28;20037;-47
2023/02/18 09:01:48;;;;;;;26.05;13.25;;;7.40;99.90;;;;;;5047291;28;20021;-47
2023/02/18 09:04:14;;;;;;;24.58;13.38;;;7.40;99.90;;;;;;5048201;28;20517;-48
2023/02/18 09:06:39;;;;;;;26.25;14.40;;;7.40;99.90;;;;;;5048010;28;20442;-46
2023/02/18 09:09:05;;;;;;;28.90;13.27;;;7.40;99.90;;;;;;5047835;28;20502;-47
2023/02/18 09:11:31;;;;;;;25.92;13.45;;;7.40;99.90;;;;;;5047055;28;20021;-47
2023/02/18 09:13:56;;;;;;;28.35;14.15;;;7.50;99.90;;;;;;5046688;28;20017;-46
2023/02/18 09:16:22;;;;;;;29.80;14.98;;;7.50;99.90;;;;;;5048813;28;20509;-47
2023/02/18 09:18:48;;;;;;;40.53;18.63;;;7.60;99.90;;;;;;5048901;28;20408;-47
2023/02/18 09:21:15;;;;;;;37.20;18.48;;;7.70;99.90;;;;;;5049611;28;20036;-49
2023/02/18 09:23:41;;;;;;;40.97;17.80;;;7.90;99.90;;;;;;5049568;28;20313;-50
2023/02/18 09:26:09;;;;;;;43.78;17.63;;;7.90;99.90;;;;;;5049078;28;20029;-47
2023/02/18 09:28:36;;;;;;;44.30;18.92;;;8.10;99.90;;;;;;5065931;28;20047;-47
2023/02/18 09:31:14;;;;;;;41.72;16.65;;;8.30;99.90;;;;;;5050386;28;20028;-49
2023/02/18 09:33:42;;;;;;;37.05;14.90;;;8.40;99.90;;;;;;5050682;28;20990;-48
2023/02/18 09:36:08;;;;;;;32.42;13.73;;;8.60;99.90;;;;;;5048135;28;20365;-49
2023/02/18 09:38:34;;;;;;;33.05;13.65;;;8.80;99.90;;;;;;5065854;28;20105;-48
2023/02/18 09:41:03;;;;;;;21.60;9.82;;;9.00;99.90;;;;;;5050605;28;20041;-47
2023/02/18 09:43:46;;;;;;;20.65;8.65;;;9.10;99.90;;;;;;5051151;28;20020;-48
2023/02/18 09:46:34;;;;;;;17.65;7.13;;;9.30;99.90;;;;;;5051441;28;20025;-51
2023/02/18 09:49:03;;;;;;;11.90;5.95;;;9.40;99.90;;;;;;5050954;28;20029;-47
2023/02/18 09:51:29;;;;;;;9.10;4.80;;;9.50;99.90;;;;;;5050325;28;20108;-47
2023/02/18 09:53:54;;;;;;;7.05;3.97;;;9.60;99.90;;;;;;5050082;28;20495;-46
2023/02/18 09:56:27;;;;;;;8.15;4.35;;;9.70;99.90;;;;;;5049957;28;20025;-46
2023/02/18 09:58:53;;;;;;;5.43;2.92;;;9.70;99.90;;;;;;5048440;28;20036;-46
2023/02/18 10:01:34;;;;;;;3.63;2.40;;;9.80;99.90;;;;;;5048856;28;20021;-47
2023/02/18 10:04:08;;;;;;;3.90;2.47;;;9.80;99.90;;;;;;5048711;28;20497;-47
2023/02/18 10:06:34;;;;;;;3.13;2.10;;;9.90;99.90;;;;;;5048678;28;20332;-46
2023/02/18 10:09:14;;;;;;;3.60;2.17;;;9.90;99.90;;;;;;5046354;28;20492;-49
2023/02/18 10:11:42;;;;;;;2.70;2.33;;;9.90;99.90;;;;;;5048989;28;20112;-46
2023/02/18 10:14:12;;;;;;;3.60;2.28;;;10.00;99.90;;;;;;5047325;28;20017;-48
2023/02/18 10:16:38;;;;;;;2.67;1.85;;;10.00;99.90;;;;;;5050169;28;20028;-48
2023/02/18 10:19:24;;;;;;;4.45;2.50;;;10.00;99.90;;;;;;5050134;28;20072;-47
2023/02/18 10:21:51;;;;;;;2.78;1.67;;;10.10;99.90;;;;;;5049942;28;20381;-47
2023/02/18 10:24:23;;;;;;;3.22;2.17;;;10.10;99.90;;;;;;5050457;28;20047;-47
2023/02/18 10:26:49;;;;;;;2.50;1.98;;;10.10;99.90;;;;;;5050069;28;20534;-47
2023/02/18 10:29:18;;;;;;;5.15;3.13;;;10.10;99.90;;;;;;5050208;28;20021;-46
2023/02/18 10:31:55;;;;;;;4.18;2.53;;;10.10;99.90;;;;;;5049577;28;20399;-48
2023/02/18 10:34:40;;;;;;;5.68;2.97;;;10.10;99.90;;;;;;5049055;28;20017;-47
2023/02/18 10:37:41;;;;;;;3.25;2.40;;;10.10;99.90;;;;;;5049970;28;20025;-47
2023/02/18 10:40:16;;;;;;;2.13;1.77;;;10.10;99.90;;;;;;5048199;28;20534;-47
2023/02/18 10:42:53;;;;;;;2.63;2.25;;;10.10;99.90;;;;;;5049401;28;20033;-46
2023/02/18 10:45:27;;;;;;;3.80;2.10;;;10.10;99.90;;;;;;5049370;28;20069;-47
2023/02/18 10:47:53;;;;;;;3.55;2.13;;;10.10;99.90;;;;;;5047841;28;20017;-47
2023/02/18 10:50:29;;;;;;;3.67;2.22;;;10.10;99.90;;;;;;5049475;28;20021;-47
2023/02/18 10:53:00;;;;;;;2.75;2.22;;;10.10;99.90;;;;;;5048179;28;20562;-47
2023/02/18 10:55:40;;;;;;;4.72;1.98;;;10.10;99.90;;;;;;5065312;28;20098;-47
2023/02/18 10:58:35;;;;;;;3.13;2.00;;;10.10;99.90;;;;;;5049847;28;20079;-47
2023/02/18 11:01:07;;;;;;;3.88;2.72;;;10.10;99.90;;;;;;5064734;28;20141;-47
2023/02/18 11:03:42;;;;;;;3.03;2.40;;;10.10;99.90;;;;;;5064529;28;20025;-47
2023/02/18 11:06:30;;;;;;;4.68;2.28;;;10.10;99.90;;;;;;5049189;28;20033;-48
2023/02/18 11:08:56;;;;;;;5.43;2.97;;;10.10;99.90;;;;;;5049378;28;20021;-47
2023/02/18 11:11:27;;;;;;;5.00;3.03;;;10.10;99.90;;;;;;5064061;28;20119;-47
2023/02/18 11:13:55;;;;;;;4.82;3.00;;;10.00;99.90;;;;;;5049059;28;20033;-47
2023/02/18 11:16:37;;;;;;;9.57;3.88;;;10.00;99.90;;;;;;5049145;28;20025;-48
2023/02/18 11:19:03;;;;;;;3.50;2.22;;;10.00;99.90;;;;;;5049352;28;20079;-47
2023/02/18 11:21:36;;;;;;;4.70;2.45;;;10.00;99.90;;;;;;5048864;28;20036;-47
2023/02/18 11:24:19;;;;;;;4.40;3.08;;;10.00;99.90;;;;;;5049182;28;20028;-48
2023/02/18 11:26:45;;;;;;;8.18;3.63;;;10.00;99.90;;;;;;5049229;28;20052;-48
2023/02/18 11:29:26;;;;;;;6.35;3.58;;;10.00;99.90;;;;;;5049059;28;20025;-48
2023/02/18 11:31:55;;;;;;;6.22;3.75;;;10.00;99.90;;;;;;5063844;28;20021;-48
2023/02/18 11:34:30;;;;;;;4.72;3.70;;;10.00;99.90;;;;;;5063883;28;20029;-51
2023/02/18 11:37:18;;;;;;;5.80;3.90;;;10.10;99.90;;;;;;5046991;28;20025;-48
2023/02/18 11:39:47;;;;;;;6.45;3.63;;;10.10;99.90;;;;;;5062529;28;20025;-47
2023/02/18 11:42:14;;;;;;;7.60;4.38;;;10.00;99.90;;;;;;5028315;28;20021;-48
2023/02/18 11:44:47;;;;;;;8.52;3.40;;;10.00;99.90;;;;;;5028827;28;20460;-47
2023/02/18 11:47:13;;;;;;;6.72;3.88;;;10.00;99.90;;;;;;5044286;28;20136;-49
2023/02/18 11:49:41;;;;;;;5.78;3.67;;;10.10;99.90;;;;;;5029247;28;20021;-48
2023/02/18 11:52:22;;;;;;;5.25;4.13;;;10.10;99.90;;;;;;5028435;28;20018;-49
2023/02/18 11:55:21;;;;;;;11.57;5.10;;;10.00;99.90;;;;;;5028883;28;20084;-46
2023/02/18 11:57:58;;;;;;;6.80;4.45;;;10.00;99.90;;;;;;5033951;28;20075;-50
2023/02/18 12:00:41;;;;;;;7.25;4.80;;;10.00;99.90;;;;;;5046579;28;20144;-48
2023/02/18 12:03:28;;;;;;;8.20;3.45;;;10.00;99.90;;;;;;5046464;28;20527;-49
2023/02/18 12:05:58;;;;;;;5.75;3.88;;;10.00;99.90;;;;;;5045607;28;20033;-50
2023/02/18 12:08:29;;;;;;;5.95;4.15;;;10.00;99.90;;;;;;5044409;28;20074;-49
2023/02/18 12:11:00;;;;;;;;;;;10.00;99.90;;;;;;5049222;28;20021;-49
2023/02/18 12:13:32;;;;;;;5.57;3.97;;;10.00;99.90;;;;;;5048229;28;19909;-48
2023/02/18 12:16:34;;;;;;;8.07;4.93;;;9.90;99.90;;;;;;5047176;28;20039;-49
2023/02/18 12:19:04;;;;;;;6.55;4.85;;;9.90;99.90;;;;;;5028978;28;20044;-49
2023/02/18 12:21:47;;;;;;;8.20;5.80;;;9.80;99.90;;;;;;5047241;28;20522;-49
2023/02/18 12:24:41;;;;;;;11.98;5.63;;;9.80;99.90;;;;;;5062102;28;20733;-50
2023/02/18 12:27:39;;;;;;;9.93;5.97;;;9.80;99.90;;;;;;5045744;28;20029;-49
2023/02/18 12:30:21;;;;;;;8.95;5.75;;;9.80;99.90;;;;;;5043796;28;20029;-49
2023/02/18 12:32:59;;;;;;;10.10;6.20;;;9.80;99.90;;;;;;5044689;28;20025;-52
2023/02/18 12:35:36;;;;;;;7.95;5.30;;;9.70;99.90;;;;;;5043237;28;20013;-50
2023/02/18 12:38:22;;;;;;;9.98;5.63;;;9.70;99.90;;;;;;5043600;28;20025;-50
2023/02/18 12:40:57;;;;;;;10.68;4.75;;;9.60;99.90;;;;;;5042811;28;20057;-51
2023/02/18 12:44:06;;;;;;;9.40;4.90;;;9.60;99.90;;;;;;5040918;28;20128;-49
2023/02/18 12:46:39;;;;;;;6.45;4.47;;;9.70;99.90;;;;;;5038066;28;20060;-48
2023/02/18 12:49:33;;;;;;;4.97;3.88;;;9.60;99.90;;;;;;5044747;28;20070;-48
2023/02/18 12:52:03;;;;;;;7.00;4.70;;;9.60;99.90;;;;;;5048040;28;20039;-48
2023/02/18 12:54:47;;;;;;;7.00;4.53;;;9.60;99.90;;;;;;5050464;28;20361;-49
2023/02/18 12:57:33;;;;;;;6.53;3.63;;;9.60;99.90;;;;;;5049277;28;20020;-48
2023/02/18 13:00:28;;;;;;;5.15;3.38;;;9.60;99.90;;;;;;5051356;28;20021;-48
2023/02/18 13:03:11;;;;;;;4.65;3.13;;;9.60;99.90;;;;;;5025872;28;20037;-48
2023/02/18 13:05:45;;;;;;;7.63;3.75;;;9.60;99.90;;;;;;5049619;28;20059;-48
2023/02/18 13:08:44;;;;;;;5.78;3.42;;;9.50;99.90;;;;;;5049916;28;20025;-48
2023/02/18 13:11:22;;;;;;;6.60;3.42;;;9.60;99.90;;;;;;5048354;28;20100;-48